Aeroporto :
LOGIN :

Iscrizione | Disclaimer

   EN    FR    IT 

 










Sommario :    VFR   VFR Marginale   IFR   IFR Intensivo   IFR Molto Intensivo
Visibilità : 
Base nubi : 
>= 8 km
>= 3000ft
5 / 8 km
1000 / 3000 ft
1500m / 5 km
500 / 1000 ft
800 / 1500m
200 / 500 ft
< 800m
< 200 ft
Simboli :   Temporali  Nebbia  Neve Forte  Precipitazioni Forti  Vento > 20 kt
SIGMETs :   Varie  Temporali  Ghiacco  Turbolenza  Onda orograficha  Ceneri Vulcaniche






- Altitudine del aeroporto : 9 ft
- Codice IATA : MIR


DTMB - Habib Bourguliba Int. Monastir

ULTIMO METAR :
  • 141100Z 01009KT CAVOK 25/11 Q1020

METARs OBSOLETI :
  • 141030Z 35010KT CAVOK 24/12 Q1020
  • 141000Z 34010KT 8000 NSC 24/14 Q1020
  • 140930Z 34010KT 8000 NSC 24/13 Q1020
  • 140900Z 34011KT 8000 NSC 24/14 Q1020
  • 140830Z 33011KT 8000 NSC 23/15 Q1020
  • 140800Z 34011KT 8000 NSC 23/14 Q1020
  • 140730Z 34010KT 8000 NSC 22/15 Q1020
  • 140700Z 33012KT 8000 NSC 22/14 Q1020
  • 140630Z 33013KT 8000 NSC 22/15 Q1020

TAF TAF DTMB
Valido dal 14 a 06 ore il 15 a 06 ore UTC


140500Z 1406/1506 32015KT CAVOK
BECMG 1420/1422 17005KT



MetMap, La meteo Aeronautica in un colpo d'occhio ! - Copyright ORBIFLY Dicembre 2007 - Disclaimer

ORBIFLY MET'MAP TEAM :

Programmazione e sviluppo : Alexandra Zaïnal
Concezione : Baudouin d'Aumeries
Supporto tecnico e logistico : Manuel Goepfert
Aiuto : Marc-Olivier Méhu
Aiuto per la traduzione : Arnaldo La Scala




FONTI E CREDITI :

   NOAA